Time;durP1;ratioP1;P1;durP2;ratioP2;P2;SDS_P1;SDS_P2;PMS_P1;PMS_P2;Temp;Humidity;BMP_temperature;BMP_pressure;BME280_temperature;BME280_humidity;BME280_pressure;Samples;Min_cycle;Max_cycle;Signal;HPM_P1;HPM_P2
2023/03/12 00:01:21;;;;;;;1999.90;999.90;;;12.00;99.90;;;;;;5012490;28;20022;-78
2023/03/12 00:03:48;;;;;;;1999.90;999.90;;;12.00;99.90;;;;;;5013151;28;20026;-78
2023/03/12 00:06:14;;;;;;;1999.90;999.90;;;12.00;99.90;;;;;;5013884;28;20045;-78
2023/03/12 00:08:39;;;;;;;1999.90;999.90;;;12.00;99.90;;;;;;5013823;28;20127;-78
2023/03/12 00:11:11;;;;;;;1999.90;999.90;;;11.90;99.90;;;;;;5013619;28;20033;-79
2023/03/12 00:13:37;;;;;;;1999.90;999.90;;;11.90;99.90;;;;;;5013424;28;20504;-78
2023/03/12 00:16:09;;;;;;;1999.90;999.90;;;12.00;99.90;;;;;;5008963;28;20025;-78
2023/03/12 00:18:35;;;;;;;1999.90;999.90;;;12.00;99.90;;;;;;5013360;28;20026;-78
2023/03/12 00:21:00;;;;;;;1999.90;999.90;;;12.00;99.90;;;;;;5013736;28;20022;-78
2023/03/12 00:23:26;;;;;;;1999.90;999.90;;;12.00;99.90;;;;;;5013457;28;20109;-78
2023/03/12 00:25:52;;;;;;;1999.90;999.90;;;12.00;99.90;;;;;;5013444;28;20026;-78
2023/03/12 00:28:17;;;;;;;1999.90;999.90;;;12.10;99.90;;;;;;5013273;28;20034;-78
2023/03/12 00:30:43;;;;;;;1999.90;999.90;;;12.00;99.90;;;;;;5013304;28;20026;-78
2023/03/12 00:33:11;;;;;;;1999.90;999.90;;;12.00;99.90;;;;;;5013584;28;20018;-78
2023/03/12 00:35:37;;;;;;;1999.90;999.90;;;12.00;99.90;;;;;;5013148;28;20033;-79
2023/03/12 00:38:03;;;;;;;1999.90;999.90;;;12.00;99.90;;;;;;5012969;28;20117;-78
2023/03/12 00:40:29;;;;;;;1999.90;999.90;;;12.00;99.90;;;;;;5023008;28;20053;-78
2023/03/12 00:42:54;;;;;;;1999.90;999.90;;;12.00;99.90;;;;;;5032755;28;20095;-78
2023/03/12 00:45:20;;;;;;;1999.90;999.90;;;12.00;99.90;;;;;;5030278;28;20538;-78
2023/03/12 00:47:46;;;;;;;1999.90;999.90;;;12.10;99.90;;;;;;5012976;28;20045;-78
2023/03/12 00:50:11;;;;;;;1999.90;999.90;;;12.10;99.90;;;;;;5013243;28;20156;-78
2023/03/12 00:52:37;;;;;;;1999.90;999.90;;;12.10;99.90;;;;;;5013187;28;20030;-78
2023/03/12 00:55:03;;;;;;;1999.90;999.90;;;12.10;99.90;;;;;;5012946;28;20058;-78
2023/03/12 00:57:28;;;;;;;1999.90;999.90;;;12.10;99.90;;;;;;5012967;28;20018;-78
2023/03/12 00:59:54;;;;;;;1999.90;999.90;;;12.10;99.90;;;;;;5012812;28;20062;-78
2023/03/12 01:02:20;;;;;;;1999.90;999.90;;;12.10;99.90;;;;;;5013225;28;20026;-78
2023/03/12 01:04:46;;;;;;;1999.90;999.90;;;12.10;99.90;;;;;;5012300;28;20056;-78
2023/03/12 01:07:11;;;;;;;1999.90;999.90;;;12.20;99.90;;;;;;5013029;28;20026;-78
2023/03/12 01:09:37;;;;;;;1999.90;999.90;;;12.10;99.90;;;;;;5012684;28;20371;-78
2023/03/12 01:12:03;;;;;;;1999.90;999.90;;;12.20;99.90;;;;;;5013229;28;20034;-78
2023/03/12 01:14:29;;;;;;;1999.90;999.90;;;12.10;99.90;;;;;;5012684;28;20026;-78
2023/03/12 01:16:54;;;;;;;1999.90;999.90;;;12.10;99.90;;;;;;4993108;28;20030;-78
2023/03/12 01:19:20;;;;;;;1999.90;999.90;;;12.10;99.90;;;;;;4993120;28;20030;-78
2023/03/12 01:21:46;;;;;;;1999.90;999.90;;;12.10;99.90;;;;;;4993129;28;20397;-78
2023/03/12 01:24:11;;;;;;;1999.90;999.90;;;12.10;99.90;;;;;;5024726;28;20057;-77
2023/03/12 01:26:37;;;;;;;1999.90;999.90;;;12.10;99.90;;;;;;4993226;28;20436;-77
2023/03/12 01:29:02;;;;;;;1999.90;999.90;;;12.10;99.90;;;;;;4993114;28;20031;-77
2023/03/12 01:31:28;;;;;;;1999.90;999.90;;;12.10;99.90;;;;;;4993068;28;20037;-77
2023/03/12 01:33:54;;;;;;;1999.90;999.90;;;12.10;99.90;;;;;;4993038;28;20480;-78
2023/03/12 01:36:28;;;;;;;1999.90;999.90;;;12.10;99.90;;;;;;4993258;28;20026;-78
2023/03/12 01:38:55;;;;;;;1999.90;999.90;;;12.10;99.90;;;;;;4993132;28;20030;-78
2023/03/12 01:41:22;;;;;;;1999.90;999.90;;;12.10;99.90;;;;;;5026692;28;20017;-78
2023/03/12 01:43:48;;;;;;;1999.90;999.90;;;12.10;99.90;;;;;;5032658;28;20028;-78
2023/03/12 01:46:37;;;;;;;1999.90;999.90;;;12.10;99.90;;;;;;5032154;28;20387;-78
2023/03/12 01:49:08;;;;;;;1999.90;999.90;;;12.10;99.90;;;;;;5065325;28;20038;-78
2023/03/12 01:51:57;;;;;;;1999.90;999.90;;;12.00;99.90;;;;;;5035038;28;20391;-78
2023/03/12 01:54:32;;;;;;;1999.90;999.90;;;12.00;99.90;;;;;;5035904;28;20167;-78
2023/03/12 01:56:59;;;;;;;1999.90;999.90;;;12.00;99.90;;;;;;5035960;28;20047;-78
2023/03/12 01:59:33;;;;;;;1999.90;999.90;;;12.00;99.90;;;;;;5035881;28;20476;-78
2023/03/12 02:01:58;;;;;;;1999.90;999.90;;;12.00;99.90;;;;;;5035796;28;20109;-78
2023/03/12 02:04:27;;;;;;;1999.90;999.90;;;12.00;99.90;;;;;;5035662;28;20060;-78
2023/03/12 02:07:14;;;;;;;1999.90;999.90;;;12.00;99.90;;;;;;5035518;28;20022;-78
2023/03/12 02:09:47;;;;;;;1999.90;999.90;;;12.00;99.90;;;;;;5035443;28;20033;-78
2023/03/12 02:12:13;;;;;;;;;;;12.00;99.90;;;;;;5036203;28;20025;-79
2023/03/12 02:14:38;;;;;;;1999.90;999.90;;;12.00;99.90;;;;;;5026345;28;20399;-77
2023/03/12 02:17:04;;;;;;;1999.90;999.90;;;11.90;99.90;;;;;;5015832;28;20029;-78
2023/03/12 02:19:45;;;;;;;1999.90;999.90;;;11.90;99.90;;;;;;5015602;28;20030;-79
2023/03/12 02:22:12;;;;;;;1999.90;999.90;;;11.80;99.90;;;;;;5016097;28;20026;-78
2023/03/12 02:25:02;;;;;;;1999.90;999.90;;;11.80;99.90;;;;;;5015728;28;20022;-78
2023/03/12 02:27:33;;;;;;;1999.90;999.90;;;11.80;99.90;;;;;;5015510;28;20022;-78
2023/03/12 02:30:00;;;;;;;1999.90;999.90;;;11.80;99.90;;;;;;5015555;28;20014;-79
2023/03/12 02:32:29;;;;;;;1999.90;999.90;;;11.80;99.90;;;;;;5015720;28;20026;-78
2023/03/12 02:34:56;;;;;;;1999.90;999.90;;;11.80;99.90;;;;;;5015567;28;20007;-77
2023/03/12 02:37:21;;;;;;;1999.90;999.90;;;11.80;99.90;;;;;;5015309;28;20057;-79
2023/03/12 02:39:56;;;;;;;1999.90;999.90;;;11.70;99.90;;;;;;5019223;28;20072;-78
2023/03/12 02:42:23;;;;;;;1999.90;999.90;;;11.70;99.90;;;;;;5035318;28;20029;-77
2023/03/12 02:44:49;;;;;;;1999.90;999.90;;;11.70;99.90;;;;;;5035224;28;20021;-77
2023/03/12 02:47:15;;;;;;;1999.90;999.90;;;11.70;99.90;;;;;;5016513;28;20050;-78
2023/03/12 02:49:41;;;;;;;1999.90;999.90;;;11.70;99.90;;;;;;5015245;28;20061;-78
2023/03/12 02:52:08;;;;;;;1999.90;999.90;;;11.80;99.90;;;;;;5015655;28;20030;-78
2023/03/12 02:54:34;;;;;;;1999.90;999.90;;;11.80;99.90;;;;;;5015164;28;20551;-78
2023/03/12 02:56:59;;;;;;;1999.90;999.90;;;11.90;99.90;;;;;;5014998;28;20034;-78
2023/03/12 02:59:25;;;;;;;1999.90;999.90;;;11.90;99.90;;;;;;5014530;28;20030;-78
2023/03/12 03:01:56;;;;;;;1999.90;999.90;;;11.90;99.90;;;;;;5015008;28;20145;-78
2023/03/12 03:04:22;;;;;;;1999.90;999.90;;;11.90;99.90;;;;;;5015178;28;20489;-78
2023/03/12 03:06:48;;;;;;;1999.90;999.90;;;12.00;99.90;;;;;;5014350;28;20026;-78
2023/03/12 03:09:14;;;;;;;1999.90;999.90;;;11.90;99.90;;;;;;5015016;28;20052;-79
2023/03/12 03:11:40;;;;;;;1999.90;999.90;;;11.90;99.90;;;;;;5013280;28;20037;-78
2023/03/12 03:14:06;;;;;;;1999.90;999.90;;;11.90;99.90;;;;;;5014537;28;20104;-78
2023/03/12 03:16:32;;;;;;;1999.90;999.90;;;11.90;99.90;;;;;;5010523;28;20370;-79
2023/03/12 03:18:58;;;;;;;1999.90;999.90;;;11.90;99.90;;;;;;5014842;28;20026;-79
2023/03/12 03:21:24;;;;;;;1999.90;999.90;;;11.90;99.90;;;;;;5014819;28;20022;-78
2023/03/12 03:23:50;;;;;;;1999.90;999.90;;;11.90;99.90;;;;;;5014544;28;20022;-78
2023/03/12 03:26:18;;;;;;;1999.90;999.90;;;11.90;99.90;;;;;;5014641;28;20025;-78
2023/03/12 03:28:44;;;;;;;1999.90;999.90;;;11.80;99.90;;;;;;5014354;28;20026;-78
2023/03/12 03:31:10;;;;;;;1999.90;999.90;;;11.90;99.90;;;;;;5014527;28;20026;-78
2023/03/12 03:33:37;;;;;;;1999.90;999.90;;;11.90;99.90;;;;;;5014700;28;20543;-78
2023/03/12 03:36:04;;;;;;;1999.90;999.90;;;11.80;99.90;;;;;;5014174;28;20034;-80
2023/03/12 03:38:31;;;;;;;1999.90;999.90;;;11.90;99.90;;;;;;5014325;28;20068;-79
2023/03/12 03:40:57;;;;;;;1999.90;999.90;;;11.90;99.90;;;;;;5014044;28;20029;-78
2023/03/12 03:43:22;;;;;;;1999.90;999.90;;;11.90;99.90;;;;;;5014230;28;20022;-78
2023/03/12 03:45:48;;;;;;;1999.90;999.90;;;11.90;99.90;;;;;;5045813;28;20053;-79
2023/03/12 03:48:14;;;;;;;1999.90;999.90;;;11.90;99.90;;;;;;5014105;28;20053;-79
2023/03/12 03:50:40;;;;;;;1999.90;999.90;;;11.80;99.90;;;;;;5012659;28;20040;-78
2023/03/12 03:53:08;;;;;;;1999.90;999.90;;;11.80;99.90;;;;;;5014344;28;20029;-78
2023/03/12 03:55:37;;;;;;;1999.90;999.90;;;11.80;99.90;;;;;;5013896;28;20038;-78
2023/03/12 03:58:03;;;;;;;1999.90;999.90;;;11.70;99.90;;;;;;5013921;28;20018;-78
2023/03/12 04:00:29;;;;;;;1999.90;999.90;;;11.70;99.90;;;;;;5012649;28;20060;-78
2023/03/12 04:02:54;;;;;;;1999.90;999.90;;;11.70;99.90;;;;;;5012690;28;20083;-78
2023/03/12 04:05:20;;;;;;;1999.90;999.90;;;11.70;99.90;;;;;;5013733;28;20118;-78
2023/03/12 04:07:46;;;;;;;1999.90;999.90;;;11.70;99.90;;;;;;5013198;28;20026;-78
2023/03/12 04:10:12;;;;;;;1999.90;999.90;;;11.70;99.90;;;;;;5012680;28;20073;-78
2023/03/12 04:12:37;;;;;;;1999.90;999.90;;;11.70;99.90;;;;;;5012831;28;20072;-80
2023/03/12 04:15:04;;;;;;;1999.90;999.90;;;11.60;99.90;;;;;;5009482;28;20022;-80
2023/03/12 04:17:29;;;;;;;1999.90;999.90;;;11.60;99.90;;;;;;4993107;28;20512;-79
2023/03/12 04:19:55;;;;;;;1999.90;999.90;;;11.60;99.90;;;;;;5011691;28;20121;-78
2023/03/12 04:22:21;;;;;;;1999.90;999.90;;;11.60;99.90;;;;;;5013793;28;20030;-78
2023/03/12 04:24:46;;;;;;;1999.90;999.90;;;11.60;99.90;;;;;;5013591;28;20431;-78
2023/03/12 04:27:12;;;;;;;1999.90;999.90;;;11.60;99.90;;;;;;5013491;28;20406;-78
2023/03/12 04:29:39;;;;;;;1999.90;999.90;;;11.50;99.90;;;;;;5013213;28;20045;-79
2023/03/12 04:32:06;;;;;;;1999.90;999.90;;;11.50;99.90;;;;;;5013452;28;20539;-78
2023/03/12 04:34:31;;;;;;;1999.90;999.90;;;11.50;99.90;;;;;;5013652;28;20531;-78
2023/03/12 04:36:57;;;;;;;1999.90;999.90;;;11.50;99.90;;;;;;5013186;28;20029;-78
2023/03/12 04:39:23;;;;;;;1999.90;999.90;;;11.50;99.90;;;;;;5013527;28;20124;-78
2023/03/12 04:41:48;;;;;;;1999.90;999.90;;;11.50;99.90;;;;;;5064900;28;20020;-78
2023/03/12 04:44:14;;;;;;;1999.90;999.90;;;11.50;99.90;;;;;;5033468;28;20030;-77
2023/03/12 04:46:41;;;;;;;1999.90;999.90;;;11.50;99.90;;;;;;5019368;28;20046;-79
2023/03/12 04:49:07;;;;;;;1999.90;999.90;;;11.60;99.90;;;;;;5013196;28;20041;-79
2023/03/12 04:51:33;;;;;;;1999.90;999.90;;;11.60;99.90;;;;;;5012971;28;20030;-78
2023/03/12 04:53:58;;;;;;;1999.90;999.90;;;11.60;99.90;;;;;;5012955;28;20038;-79
2023/03/12 04:56:24;;;;;;;1999.90;999.90;;;11.60;99.90;;;;;;5013393;28;20033;-78
2023/03/12 04:58:50;;;;;;;1999.90;999.90;;;11.60;99.90;;;;;;5013275;28;20042;-78
2023/03/12 05:01:28;;;;;;;1999.90;999.90;;;11.70;99.90;;;;;;5012992;28;20050;-79
2023/03/12 05:03:54;;;;;;;1999.90;999.90;;;11.70;99.90;;;;;;5013058;28;20030;-77
2023/03/12 05:06:20;;;;;;;1999.90;999.90;;;11.70;99.90;;;;;;5012374;28;20161;-77
2023/03/12 05:08:47;;;;;;;1999.90;999.90;;;11.70;99.90;;;;;;5013100;28;20034;-77
2023/03/12 05:11:13;;;;;;;1999.90;999.90;;;11.70;99.90;;;;;;5013183;28;20477;-78
2023/03/12 05:13:39;;;;;;;1999.90;999.90;;;11.80;99.90;;;;;;5013002;28;20030;-77
2023/03/12 05:16:05;;;;;;;1999.90;999.90;;;11.80;99.90;;;;;;5000324;28;20050;-77
2023/03/12 05:18:31;;;;;;;1999.90;999.90;;;11.80;99.90;;;;;;4993165;28;20129;-78
2023/03/12 05:21:06;;;;;;;1999.90;999.90;;;11.80;99.90;;;;;;4993420;28;20106;-78
2023/03/12 05:23:33;;;;;;;1999.90;999.90;;;11.80;99.90;;;;;;4995329;28;20480;-77
2023/03/12 05:25:58;;;;;;;1999.90;999.90;;;11.70;99.90;;;;;;4997350;28;20022;-77
2023/03/12 05:28:27;;;;;;;1999.90;999.90;;;11.70;99.90;;;;;;4997038;28;20038;-79
2023/03/12 05:30:57;;;;;;;1999.90;999.90;;;11.80;99.90;;;;;;4997167;28;20501;-79
2023/03/12 05:33:23;;;;;;;1999.90;999.90;;;11.80;99.90;;;;;;4996883;28;20054;-79
2023/03/12 05:35:49;;;;;;;1999.90;999.90;;;11.80;99.90;;;;;;4997119;28;20374;-78
2023/03/12 05:38:15;;;;;;;1999.90;999.90;;;11.90;99.90;;;;;;4996892;28;20478;-78
2023/03/12 05:40:41;;;;;;;1999.90;999.90;;;11.90;99.90;;;;;;5019608;28;20018;-78
2023/03/12 05:43:06;;;;;;;1999.90;999.90;;;12.00;99.90;;;;;;5036048;28;20057;-78
2023/03/12 05:45:32;;;;;;;1999.90;999.90;;;12.00;99.90;;;;;;5032035;28;20021;-77
2023/03/12 05:47:58;;;;;;;1999.90;999.90;;;12.00;99.90;;;;;;5016294;28;20430;-78
2023/03/12 05:50:24;;;;;;;1999.90;999.90;;;12.00;99.90;;;;;;5016526;28;20096;-78
2023/03/12 05:52:51;;;;;;;1999.90;999.90;;;12.00;99.90;;;;;;5016371;28;20021;-77
2023/03/12 05:55:17;;;;;;;1999.90;999.90;;;12.00;99.90;;;;;;5016370;28;20026;-77
2023/03/12 05:57:43;;;;;;;1999.90;999.90;;;12.00;99.90;;;;;;5015951;28;20080;-78
2023/03/12 06:00:11;;;;;;;1999.90;999.90;;;12.00;99.90;;;;;;5016387;28;20030;-79
2023/03/12 06:02:37;;;;;;;1999.90;999.90;;;12.00;99.90;;;;;;5016341;28;20493;-79
2023/03/12 06:05:03;;;;;;;1999.90;999.90;;;11.90;99.90;;;;;;5016164;28;20018;-79
2023/03/12 06:07:28;;;;;;;1999.90;999.90;;;11.90;99.90;;;;;;5015363;28;20030;-77
2023/03/12 06:09:54;;;;;;;1999.90;999.90;;;11.90;99.90;;;;;;5015953;28;20037;-77
2023/03/12 06:12:20;;;;;;;1999.90;999.90;;;11.80;99.90;;;;;;5015911;28;20022;-79
2023/03/12 06:14:45;;;;;;;1999.90;999.90;;;11.90;99.90;;;;;;5011411;28;20026;-78
2023/03/12 06:17:11;;;;;;;1999.90;999.90;;;11.80;99.90;;;;;;5016134;28;20044;-78
2023/03/12 06:19:36;;;;;;;1999.90;999.90;;;11.80;99.90;;;;;;5015770;28;20112;-77
2023/03/12 06:22:03;;;;;;;1999.90;999.90;;;11.80;99.90;;;;;;5015618;28;20033;-77
2023/03/12 06:24:28;;;;;;;1999.90;999.90;;;11.80;99.90;;;;;;5015892;28;20021;-78
2023/03/12 06:26:54;;;;;;;1999.90;999.90;;;11.80;99.90;;;;;;5015725;28;20541;-78
2023/03/12 06:29:19;;;;;;;1999.90;999.90;;;11.80;99.90;;;;;;5015557;28;20028;-77
2023/03/12 06:31:47;;;;;;;1999.90;999.90;;;11.70;99.90;;;;;;5015871;28;20505;-77
2023/03/12 06:34:13;;;;;;;1999.90;999.90;;;11.70;99.90;;;;;;5015042;28;20133;-79
2023/03/12 06:36:38;;;;;;;1999.90;999.90;;;11.70;99.90;;;;;;5001904;28;20030;-77
2023/03/12 06:39:05;;;;;;;1999.90;999.90;;;11.70;99.90;;;;;;5027256;28;20036;-78
2023/03/12 06:41:31;;;;;;;1999.90;999.90;;;11.70;99.90;;;;;;5031658;28;20021;-77
2023/03/12 06:43:57;;;;;;;1999.90;999.90;;;11.70;99.90;;;;;;5035137;28;20018;-77
2023/03/12 06:46:24;;;;;;;1999.90;999.90;;;11.70;99.90;;;;;;5023758;28;20029;-78
2023/03/12 06:48:50;;;;;;;1999.90;999.90;;;11.70;99.90;;;;;;5015242;28;20057;-78
2023/03/12 06:51:16;;;;;;;1999.90;999.90;;;11.70;99.90;;;;;;5015225;28;20516;-77
2023/03/12 06:53:43;;;;;;;1999.90;999.90;;;11.70;99.90;;;;;;5015168;28;20029;-78
2023/03/12 06:56:10;;;;;;;1999.90;999.90;;;11.70;99.90;;;;;;5015041;28;20030;-77
2023/03/12 06:58:36;;;;;;;1999.90;999.90;;;11.70;99.90;;;;;;5015183;28;20030;-77
2023/03/12 07:01:01;;;;;;;1999.90;999.90;;;11.70;99.90;;;;;;5015170;28;20026;-77
2023/03/12 07:03:27;;;;;;;1999.90;999.90;;;11.70;99.90;;;;;;5014926;28;20396;-79
2023/03/12 07:05:55;;;;;;;1999.90;999.90;;;11.70;99.90;;;;;;5015104;28;20101;-79
2023/03/12 07:08:21;;;;;;;1999.90;999.90;;;11.70;99.90;;;;;;5014115;28;20036;-79
2023/03/12 07:10:47;;;;;;;1999.90;999.90;;;11.80;99.90;;;;;;5015298;28;20416;-77
2023/03/12 07:13:13;;;;;;;1999.90;999.90;;;11.80;99.90;;;;;;5014880;28;20025;-78
2023/03/12 07:15:39;;;;;;;1999.90;999.90;;;11.80;99.90;;;;;;5008619;28;20026;-78
2023/03/12 07:18:06;;;;;;;1999.90;999.90;;;11.90;99.90;;;;;;5014156;28;20096;-78
2023/03/12 07:20:34;;;;;;;1999.90;999.90;;;11.90;99.90;;;;;;5046718;28;20366;-78
2023/03/12 07:23:00;;;;;;;1999.90;999.90;;;11.90;99.90;;;;;;5014838;28;20116;-77
2023/03/12 07:25:26;;;;;;;1999.90;999.90;;;12.00;99.90;;;;;;5014638;28;20120;-78
2023/03/12 07:27:51;;;;;;;1999.90;999.90;;;12.10;99.90;;;;;;5014388;28;20105;-78
2023/03/12 07:30:17;;;;;;;1999.90;999.90;;;12.10;99.90;;;;;;5046246;28;20080;-77
2023/03/12 07:32:43;;;;;;;1999.90;999.90;;;12.10;99.90;;;;;;5014517;28;20018;-79
2023/03/12 07:35:09;;;;;;;1999.90;999.90;;;12.20;99.90;;;;;;5046349;28;20555;-78
2023/03/12 07:37:34;;;;;;;1999.90;999.90;;;12.20;99.90;;;;;;5014322;28;20022;-78
2023/03/12 07:40:00;;;;;;;1999.90;999.90;;;12.20;99.90;;;;;;5045566;28;20149;-78
2023/03/12 07:42:26;;;;;;;1999.90;999.90;;;12.30;99.90;;;;;;5014278;28;20038;-78
2023/03/12 07:44:51;;;;;;;1999.90;999.90;;;12.40;99.90;;;;;;5012923;28;20121;-77
2023/03/12 07:47:17;;;;;;;1999.90;999.90;;;12.40;99.90;;;;;;5014086;28;20050;-77
2023/03/12 07:49:43;;;;;;;1999.90;999.90;;;12.40;99.90;;;;;;5014113;28;20037;-78
2023/03/12 07:52:10;;;;;;;1999.90;999.90;;;12.50;99.90;;;;;;5014196;28;20033;-78
2023/03/12 07:54:37;;;;;;;1999.90;999.90;;;12.40;99.90;;;;;;5014190;28;20396;-77
2023/03/12 07:57:03;;;;;;;1999.90;999.90;;;12.40;99.90;;;;;;5013893;28;20454;-77
2023/03/12 07:59:28;;;;;;;1999.90;999.90;;;12.40;99.90;;;;;;5013992;28;20029;-78
2023/03/12 08:01:54;;;;;;;1999.90;999.90;;;12.30;99.90;;;;;;5013963;28;20500;-77
2023/03/12 08:04:20;;;;;;;1999.90;999.90;;;12.30;99.90;;;;;;5012676;28;20029;-77
2023/03/12 08:06:45;;;;;;;1999.90;999.90;;;12.30;99.90;;;;;;5012481;28;20030;-77
2023/03/12 08:09:11;;;;;;;1999.90;999.90;;;12.30;99.90;;;;;;5012452;28;20113;-77
2023/03/12 08:11:37;;;;;;;1999.90;999.90;;;12.30;99.90;;;;;;5013704;28;20034;-77
2023/03/12 08:14:03;;;;;;;1999.90;999.90;;;12.30;99.90;;;;;;5013738;28;20118;-77
2023/03/12 08:16:29;;;;;;;1999.90;999.90;;;12.40;99.90;;;;;;5009012;28;20504;-77
2023/03/12 08:18:55;;;;;;;1999.90;999.90;;;12.40;99.90;;;;;;5012945;28;20032;-77
2023/03/12 08:21:21;;;;;;;1999.90;999.90;;;12.50;99.90;;;;;;5013582;28;20141;-78
2023/03/12 08:23:47;;;;;;;1999.90;999.90;;;12.50;99.90;;;;;;5013662;28;20033;-77
2023/03/12 08:26:12;;;;;;;1999.90;999.90;;;12.40;99.90;;;;;;5013508;28;20080;-77
2023/03/12 08:28:38;;;;;;;1999.90;999.90;;;12.50;99.90;;;;;;5013650;28;20025;-77
2023/03/12 08:31:04;;;;;;;1999.90;999.90;;;12.50;99.90;;;;;;5045107;28;20091;-77
2023/03/12 08:33:30;;;;;;;1999.90;999.90;;;12.50;99.90;;;;;;5013387;28;20444;-77
2023/03/12 08:35:56;;;;;;;1999.90;999.90;;;12.60;99.90;;;;;;5013349;28;20045;-77
2023/03/12 08:38:21;;;;;;;1999.90;999.90;;;12.70;99.90;;;;;;5013368;28;20022;-77
2023/03/12 08:40:55;;;;;;;1999.90;999.90;;;12.70;99.90;;;;;;5025101;28;20033;-77
2023/03/12 08:43:21;;;;;;;1999.90;999.90;;;12.70;99.90;;;;;;5033177;28;20500;-78
2023/03/12 08:45:55;;;;;;;1999.90;999.90;;;12.60;99.90;;;;;;5026463;28;20033;-77
2023/03/12 08:48:21;;;;;;;1999.90;999.90;;;12.70;99.90;;;;;;5013023;28;20076;-77
2023/03/12 08:50:46;;;;;;;1999.90;999.90;;;12.70;99.90;;;;;;5012938;28;20101;-77
2023/03/12 08:53:12;;;;;;;1999.90;999.90;;;12.80;99.90;;;;;;5013386;28;20022;-77
2023/03/12 08:55:38;;;;;;;1999.90;999.90;;;13.20;99.90;;;;;;5012907;28;20034;-77
2023/03/12 08:58:03;;;;;;;1999.90;999.90;;;13.50;99.90;;;;;;5012808;28;20025;-77
2023/03/12 09:00:29;;;;;;;1999.90;999.90;;;13.50;99.90;;;;;;5012965;28;20026;-78
2023/03/12 09:02:57;;;;;;;1999.90;999.90;;;13.50;99.90;;;;;;5013167;28;20026;-77
2023/03/12 09:05:23;;;;;;;1999.90;999.90;;;13.50;99.90;;;;;;5013177;28;20022;-78
2023/03/12 09:07:49;;;;;;;1999.90;999.90;;;13.50;99.90;;;;;;5012851;28;20014;-78
2023/03/12 09:10:15;;;;;;;1999.90;999.90;;;13.40;99.90;;;;;;5012247;28;20084;-78
2023/03/12 09:12:41;;;;;;;1999.90;999.90;;;13.50;99.90;;;;;;5012855;28;20061;-79
2023/03/12 09:15:08;;;;;;;1999.90;999.90;;;13.40;99.90;;;;;;5008421;28;20447;-78
2023/03/12 09:17:34;;;;;;;1999.90;999.90;;;13.40;99.90;;;;;;5013046;28;20022;-77
2023/03/12 09:19:59;;;;;;;1999.90;999.90;;;13.40;99.90;;;;;;5013183;28;20033;-77
2023/03/12 09:22:25;;;;;;;1999.90;999.90;;;13.60;99.90;;;;;;5012979;28;20494;-78
2023/03/12 09:24:51;;;;;;;1999.90;999.90;;;13.60;99.90;;;;;;5012695;28;20393;-77
2023/03/12 09:27:16;;;;;;;1999.90;999.90;;;13.70;99.90;;;;;;5012834;28;20505;-77
2023/03/12 09:29:42;;;;;;;1999.90;999.90;;;13.50;99.90;;;;;;5012739;28;20072;-77
2023/03/12 09:32:08;;;;;;;1999.90;999.90;;;13.50;99.90;;;;;;5012780;28;20030;-77
2023/03/12 09:34:34;;;;;;;1999.90;999.90;;;13.50;99.90;;;;;;5012792;28;20068;-77
2023/03/12 09:36:59;;;;;;;1999.90;999.90;;;13.60;99.90;;;;;;5012577;28;20546;-77
2023/03/12 09:39:25;;;;;;;1999.90;999.90;;;14.20;99.90;;;;;;5013283;28;20077;-78
2023/03/12 09:41:51;;;;;;;1999.90;999.90;;;14.90;99.90;;;;;;5032424;28;20059;-78
2023/03/12 09:44:31;;;;;;;1999.90;999.90;;;15.30;99.90;;;;;;5032585;28;20388;-79
2023/03/12 09:47:06;;;;;;;1999.90;999.90;;;15.40;99.90;;;;;;5016395;28;20145;-78
2023/03/12 09:49:45;;;;;;;1999.90;999.90;;;15.00;99.90;;;;;;5011162;28;20412;-78
2023/03/12 09:52:38;;;;;;;1999.90;999.90;;;14.60;99.90;;;;;;5012695;28;20026;-78
2023/03/12 09:55:15;;;;;;;1999.90;999.90;;;14.10;99.90;;;;;;5011390;28;20022;-78
2023/03/12 09:57:43;;;;;;;1999.90;999.90;;;14.20;99.90;;;;;;5012463;28;20516;-78
2023/03/12 10:00:15;;;;;;;1999.90;999.90;;;14.50;99.90;;;;;;5012534;28;20022;-78
2023/03/12 10:03:01;;;;;;;1999.90;999.90;;;14.70;99.90;;;;;;5012559;28;20482;-77
2023/03/12 10:05:42;;;;;;;1999.90;999.90;;;15.10;99.90;;;;;;5012608;28;20477;-78
2023/03/12 10:08:26;;;;;;;1999.90;999.90;;;15.10;99.90;;;;;;5012302;28;20065;-78
2023/03/12 10:10:54;;;;;;;1999.90;999.90;;;15.00;99.90;;;;;;5013202;28;20028;-78
2023/03/12 10:13:58;;;;;;;1999.90;999.90;;;14.70;99.90;;;;;;5015941;28;20026;-79
2023/03/12 10:16:34;;;;;;;1999.90;999.90;;;15.10;99.90;;;;;;5004086;28;20037;-78
2023/03/12 10:19:31;;;;;;;1999.90;999.90;;;15.40;99.90;;;;;;4996327;28;20544;-79
2023/03/12 10:22:06;;;;;;;1999.90;999.90;;;15.30;99.90;;;;;;4996211;28;20022;-78
2023/03/12 10:24:55;;;;;;;1999.90;999.90;;;15.20;99.90;;;;;;4996407;28;20033;-78
2023/03/12 10:27:26;;;;;;;1999.90;999.90;;;15.20;99.90;;;;;;4995994;28;20018;-78
2023/03/12 10:29:54;;;;;;;1999.90;999.90;;;15.10;99.90;;;;;;4996003;28;20128;-78
2023/03/12 10:32:35;;;;;;;1999.90;999.90;;;15.40;99.90;;;;;;4995890;28;20022;-79
2023/03/12 10:35:21;;;;;;;1999.90;999.90;;;15.80;99.90;;;;;;4996284;28;20137;-78
2023/03/12 10:38:02;;;;;;;1999.90;999.90;;;15.90;99.90;;;;;;4995543;28;20508;-79
2023/03/12 10:40:32;;;;;;;1999.90;999.90;;;15.70;99.90;;;;;;5014679;28;20033;-78
2023/03/12 10:42:59;;;;;;;1999.90;999.90;;;15.90;99.90;;;;;;5035056;28;20520;-79
2023/03/12 10:45:37;;;;;;;1999.90;999.90;;;15.60;99.90;;;;;;5034855;28;20018;-78
2023/03/12 10:48:07;;;;;;;1999.90;999.90;;;15.40;99.90;;;;;;5035033;28;20053;-79
2023/03/12 10:50:38;;;;;;;1999.90;999.90;;;15.30;99.90;;;;;;5034875;28;20018;-79
2023/03/12 10:53:17;;;;;;;1999.90;999.90;;;15.40;99.90;;;;;;5034893;28;20052;-79
2023/03/12 10:55:56;;;;;;;1999.90;999.90;;;15.70;99.90;;;;;;5035194;28;20025;-78
2023/03/12 10:58:23;;;;;;;1999.90;999.90;;;15.50;99.90;;;;;;5035215;28;20040;-77
2023/03/12 11:00:56;;;;;;;1999.90;999.90;;;15.40;99.90;;;;;;5035083;28;20380;-78
2023/03/12 11:03:22;;;;;;;1999.90;999.90;;;15.40;99.90;;;;;;5034136;28;20134;-79
2023/03/12 11:05:53;;;;;;;1999.90;999.90;;;15.70;99.90;;;;;;5034840;28;20125;-79
2023/03/12 11:08:36;;;;;;;1999.90;999.90;;;15.70;99.90;;;;;;5034938;28;20106;-79
2023/03/12 11:11:03;;;;;;;1999.90;999.90;;;15.60;99.90;;;;;;5034177;28;20056;-79
2023/03/12 11:13:35;;;;;;;1999.90;999.90;;;15.70;99.90;;;;;;5034811;28;20163;-78
2023/03/12 11:16:23;;;;;;;1999.90;999.90;;;15.50;99.90;;;;;;5046008;28;20441;-79
2023/03/12 11:19:00;;;;;;;1999.90;999.90;;;15.40;99.90;;;;;;5014495;28;20030;-79
2023/03/12 11:21:26;;;;;;;1999.90;999.90;;;15.10;99.90;;;;;;5014475;28;20018;-78
2023/03/12 11:23:57;;;;;;;1999.90;999.90;;;15.00;99.90;;;;;;5014809;28;20025;-78
2023/03/12 11:26:32;;;;;;;1999.90;999.90;;;14.80;99.90;;;;;;5014593;28;20416;-78
2023/03/12 11:29:03;;;;;;;1999.90;999.90;;;14.80;99.90;;;;;;5013194;28;20026;-79
2023/03/12 11:31:33;;;;;;;1999.90;999.90;;;14.70;99.90;;;;;;5014463;28;20026;-79
2023/03/12 11:34:04;;;;;;;1999.90;999.90;;;14.50;99.90;;;;;;5015131;28;20033;-79
2023/03/12 11:36:55;;;;;;;1999.90;999.90;;;14.30;99.90;;;;;;5014503;28;20096;-77
2023/03/12 11:40:13;;;;;;;1999.90;999.90;;;14.10;99.90;;;;;;5014398;28;20033;-78
2023/03/12 11:42:51;;;;;;;1999.90;999.90;;;13.90;99.90;;;;;;5031619;28;20068;-78
2023/03/12 11:45:55;;;;;;;1999.90;999.90;;;14.30;99.90;;;;;;5031191;28;20127;-78
2023/03/12 11:48:40;;;;;;;;;;;14.40;99.90;;;;;;5014603;28;20052;-79
2023/03/12 11:51:24;;;;;;;1999.90;999.90;;;14.60;99.90;;;;;;5045840;28;19906;-77
2023/03/12 11:54:18;;;;;;;1999.90;999.90;;;14.40;99.90;;;;;;5014124;28;20041;-78
2023/03/12 11:56:51;;;;;;;1999.90;999.90;;;14.60;99.90;;;;;;5013255;28;20042;-78
2023/03/12 11:59:54;;;;;;;1999.90;999.90;;;14.50;99.90;;;;;;5014060;28;20033;-79
2023/03/12 12:02:29;;;;;;;1999.90;999.90;;;14.40;99.90;;;;;;5014170;28;20032;-77
2023/03/12 12:05:31;;;;;;;1999.90;999.90;;;14.10;99.90;;;;;;5013895;28;20438;-77
2023/03/12 12:08:15;;;;;;;1999.90;999.90;;;14.10;99.90;;;;;;5013957;28;20073;-78
2023/03/12 12:10:45;;;;;;;1999.90;999.90;;;14.00;99.90;;;;;;5013208;28;20452;-77